createdAt,value
2019-03-05T00:01:35.341Z,7.10
2019-03-05T00:04:04.118Z,7.00
2019-03-05T00:06:32.533Z,6.90
2019-03-05T00:09:00.977Z,6.90
2019-03-05T00:11:29.393Z,6.80
2019-03-05T00:13:57.884Z,6.80
2019-03-05T00:16:26.381Z,6.80
2019-03-05T00:18:54.802Z,6.80
2019-03-05T00:21:23.253Z,6.70
2019-03-05T00:23:53.990Z,6.80
2019-03-05T00:26:34.587Z,6.80
2019-03-05T00:29:30.553Z,7.00
2019-03-05T00:31:59.049Z,7.10
2019-03-05T00:34:36.564Z,7.20
2019-03-05T00:37:08.066Z,7.20
2019-03-05T00:39:39.610Z,7.20
2019-03-05T00:42:12.746Z,7.10
2019-03-05T00:45:02.371Z,6.90
2019-03-05T00:47:42.868Z,6.80
2019-03-05T00:50:41.466Z,7.00
2019-03-05T00:53:49.307Z,7.20
2019-03-05T00:56:29.577Z,7.40
2019-03-05T00:59:19.260Z,7.30
2019-03-05T01:02:05.943Z,7.30
2019-03-05T01:04:55.826Z,7.30
2019-03-05T01:07:27.153Z,7.30
2019-03-05T01:09:55.686Z,7.20
2019-03-05T01:12:25.162Z,7.10
2019-03-05T01:14:53.744Z,7.30
2019-03-05T01:17:22.237Z,7.30
2019-03-05T01:19:50.673Z,7.30
2019-03-05T01:22:19.106Z,7.30
2019-03-05T01:24:47.551Z,7.10
2019-03-05T01:27:15.981Z,7.10
2019-03-05T01:29:44.808Z,7.20
2019-03-05T01:32:15.014Z,7.20
2019-03-05T01:34:48.262Z,7.20
2019-03-05T01:37:17.014Z,7.30
2019-03-05T01:39:49.582Z,7.40
2019-03-05T01:42:18.009Z,7.30
2019-03-05T01:44:46.449Z,7.20
2019-03-05T01:47:15.729Z,7.20
2019-03-05T01:49:44.174Z,7.20
2019-03-05T01:52:12.605Z,7.30
2019-03-05T01:54:41.289Z,7.30
2019-03-05T01:57:09.719Z,7.30
2019-03-05T01:59:38.169Z,7.30
2019-03-05T02:02:06.667Z,7.40
2019-03-05T02:04:35.089Z,7.40
2019-03-05T02:07:03.592Z,7.20
2019-03-05T02:09:32.296Z,7.40
2019-03-05T02:12:00.726Z,7.30
2019-03-05T02:14:29.157Z,7.20
2019-03-05T02:16:57.599Z,7.20
2019-03-05T02:19:43.137Z,7.20
2019-03-05T02:22:23.683Z,7.10
2019-03-05T02:25:21.957Z,7.00
2019-03-05T02:27:59.677Z,6.90
2019-03-05T02:30:54.151Z,6.90
2019-03-05T02:33:31.345Z,7.00
2019-03-05T02:36:02.870Z,6.80
2019-03-05T02:38:49.467Z,6.80
2019-03-05T02:41:23.889Z,6.60
2019-03-05T02:43:58.304Z,6.70
2019-03-05T02:46:49.299Z,6.60
2019-03-05T02:49:26.546Z,6.60
2019-03-05T02:52:16.047Z,6.60
2019-03-05T02:54:53.028Z,6.50
2019-03-05T02:57:20.656Z,6.60
2019-03-05T02:59:49.082Z,6.50
2019-03-05T03:02:21.931Z,6.50
2019-03-05T03:04:54.863Z,6.50
2019-03-05T03:07:23.343Z,6.60
2019-03-05T03:09:54.892Z,6.60
2019-03-05T03:12:23.335Z,6.60
2019-03-05T03:14:51.763Z,6.60
2019-03-05T03:17:20.203Z,6.50
2019-03-05T03:19:48.621Z,6.40
2019-03-05T03:22:17.070Z,6.30
2019-03-05T03:24:45.583Z,6.20
2019-03-05T03:27:14.043Z,6.20
2019-03-05T03:29:42.494Z,6.10
2019-03-05T03:32:11.293Z,6.10
2019-03-05T03:34:39.792Z,6.10
2019-03-05T03:37:08.218Z,6.10
2019-03-05T03:39:36.678Z,6.00
2019-03-05T03:42:05.179Z,5.90
2019-03-05T03:44:33.603Z,5.90
2019-03-05T03:47:02.048Z,5.80
2019-03-05T03:49:49.823Z,5.70
2019-03-05T03:52:18.287Z,5.60
2019-03-05T03:54:46.749Z,5.50
2019-03-05T03:57:15.249Z,5.50
2019-03-05T03:59:43.678Z,5.40
2019-03-05T04:02:12.134Z,5.40
2019-03-05T04:04:40.631Z,5.40
2019-03-05T04:07:09.081Z,5.30
2019-03-05T04:09:37.873Z,5.30
2019-03-05T04:12:06.346Z,5.20
2019-03-05T04:14:35.024Z,5.20
2019-03-05T04:17:03.507Z,5.10
2019-03-05T04:19:32.705Z,5.10
2019-03-05T04:22:01.164Z,5.10
2019-03-05T04:24:29.733Z,5.00
2019-03-05T04:26:58.996Z,5.00
2019-03-05T04:29:27.867Z,4.90
2019-03-05T04:31:57.369Z,5.00
2019-03-05T04:34:26.463Z,5.00
2019-03-05T04:36:55.389Z,5.00
2019-03-05T04:39:24.679Z,5.10
2019-03-05T04:41:53.806Z,5.20
2019-03-05T04:44:24.304Z,5.20
2019-03-05T04:46:53.170Z,5.20
2019-03-05T04:49:23.241Z,5.20
2019-03-05T04:51:59.466Z,5.20
2019-03-05T04:54:27.985Z,5.40
2019-03-05T04:56:56.410Z,5.50
2019-03-05T04:59:24.858Z,5.60
2019-03-05T05:01:53.284Z,5.80
2019-03-05T05:04:21.752Z,5.90
2019-03-05T05:06:50.408Z,6.00
2019-03-05T05:09:18.842Z,6.20
2019-03-05T05:11:47.269Z,6.20
2019-03-05T05:14:15.705Z,6.20
2019-03-05T05:16:44.470Z,6.30
2019-03-05T05:19:12.906Z,6.30
2019-03-05T05:21:41.328Z,6.40
2019-03-05T05:24:09.765Z,6.40
2019-03-05T05:26:38.203Z,6.50
2019-03-05T05:29:06.666Z,6.40
2019-03-05T05:31:35.458Z,6.50
2019-03-05T05:34:03.929Z,6.60
2019-03-05T05:36:32.634Z,6.70
2019-03-05T05:39:01.389Z,6.80
2019-03-05T05:41:31.677Z,6.80
2019-03-05T05:44:00.103Z,6.80
2019-03-05T05:46:28.537Z,6.80
2019-03-05T05:48:57.290Z,6.70
2019-03-05T05:51:25.729Z,6.70
2019-03-05T05:53:54.153Z,6.80
2019-03-05T05:56:22.601Z,6.80
2019-03-05T05:58:51.016Z,6.80
2019-03-05T06:01:19.449Z,6.90
2019-03-05T06:03:47.882Z,6.90
2019-03-05T06:06:16.321Z,6.90
2019-03-05T06:08:44.758Z,7.00
2019-03-05T06:11:13.529Z,7.00
2019-03-05T06:13:42.318Z,6.90
2019-03-05T06:16:11.118Z,6.80
2019-03-05T06:18:39.613Z,6.90
2019-03-05T06:21:08.302Z,7.00
2019-03-05T06:23:36.755Z,6.90
2019-03-05T06:26:08.423Z,6.90
2019-03-05T06:28:35.674Z,6.90
2019-03-05T06:31:04.236Z,7.00
2019-03-05T06:33:32.946Z,6.90
2019-03-05T06:36:01.389Z,6.80
2019-03-05T06:38:29.818Z,6.70
2019-03-05T06:40:58.954Z,6.70
2019-03-05T06:43:27.393Z,6.80
2019-03-05T06:45:56.167Z,6.70
2019-03-05T06:48:24.590Z,6.90
2019-03-05T06:50:53.029Z,6.90
2019-03-05T06:53:21.826Z,6.90
2019-03-05T06:55:50.334Z,6.90
2019-03-05T06:58:18.797Z,7.10
2019-03-05T07:00:47.570Z,7.20
2019-03-05T07:03:16.014Z,7.20
2019-03-05T07:06:20.962Z,7.20
2019-03-05T07:09:01.596Z,7.30
2019-03-05T07:11:39.330Z,7.40
2019-03-05T07:14:19.444Z,7.40
2019-03-05T07:16:50.994Z,7.50
2019-03-05T07:19:21.371Z,7.50
2019-03-05T07:22:12.306Z,7.60
2019-03-05T07:24:46.145Z,7.70
2019-03-05T07:27:20.581Z,7.60
2019-03-05T07:29:49.016Z,7.70
2019-03-05T07:32:17.820Z,7.70
2019-03-05T07:34:47.892Z,7.60
2019-03-05T07:37:16.422Z,7.60
2019-03-05T07:39:44.923Z,7.80
2019-03-05T07:42:13.354Z,7.80
2019-03-05T07:44:41.806Z,7.90
2019-03-05T07:47:10.235Z,8.00
2019-03-05T07:49:43.639Z,7.80
2019-03-05T07:52:08.841Z,7.90
2019-03-05T07:54:37.281Z,8.10
2019-03-05T07:57:05.737Z,8.00
2019-03-05T07:59:34.189Z,8.00
2019-03-05T08:02:03.376Z,8.10
2019-03-05T08:04:31.822Z,8.10
2019-03-05T08:07:00.253Z,8.10
2019-03-05T08:09:36.098Z,8.00
2019-03-05T08:12:39.530Z,8.10
2019-03-05T08:15:16.715Z,8.20
2019-03-05T08:17:47.020Z,8.10
2019-03-05T08:20:15.747Z,8.00
2019-03-05T08:22:44.177Z,8.00
2019-03-05T08:25:13.414Z,8.00
2019-03-05T08:27:41.837Z,8.00
2019-03-05T08:30:14.790Z,7.80
2019-03-05T08:32:43.740Z,7.80
2019-03-05T08:35:12.726Z,7.80
2019-03-05T08:37:41.158Z,7.80
2019-03-05T08:40:12.537Z,7.70
2019-03-05T08:42:40.970Z,7.70
2019-03-05T08:45:14.946Z,7.70
2019-03-05T08:47:43.509Z,7.70
2019-03-05T08:50:14.118Z,7.80
2019-03-05T08:52:42.850Z,8.10
2019-03-05T08:55:12.335Z,8.20
2019-03-05T08:57:41.043Z,8.20
2019-03-05T09:00:15.494Z,8.40
2019-03-05T09:02:48.440Z,8.50
2019-03-05T09:05:16.324Z,8.60
2019-03-05T09:07:45.222Z,8.70
2019-03-05T09:10:16.184Z,8.80
2019-03-05T09:12:45.038Z,8.80
2019-03-05T09:15:18.557Z,8.90
2019-03-05T09:17:47.158Z,9.10
2019-03-05T09:20:19.950Z,9.10
2019-03-05T09:22:48.695Z,9.20
2019-03-05T09:25:18.610Z,9.20
2019-03-05T09:27:47.113Z,9.20
2019-03-05T09:30:20.674Z,9.40
2019-03-05T09:32:49.179Z,9.40
2019-03-05T09:35:17.962Z,9.40
2019-03-05T09:37:46.993Z,9.30
2019-03-05T09:40:27.422Z,9.40
2019-03-05T09:42:56.395Z,9.60
2019-03-05T09:45:28.071Z,9.90
2019-03-05T09:47:56.060Z,9.80
2019-03-05T09:50:24.497Z,9.90
2019-03-05T09:52:55.235Z,9.80
2019-03-05T09:55:26.033Z,9.70
2019-03-05T09:58:06.919Z,9.50
2019-03-05T10:00:26.940Z,9.60
2019-03-05T10:02:55.514Z,9.70
2019-03-05T10:05:24.030Z,9.70
2019-03-05T10:07:52.453Z,9.80
2019-03-05T10:10:26.613Z,9.90
2019-03-05T10:12:58.900Z,10.10
2019-03-05T10:15:26.799Z,10.00
2019-03-05T10:17:55.635Z,10.10
2019-03-05T10:20:31.391Z,10.00
2019-03-05T10:22:59.917Z,10.00
2019-03-05T10:25:29.069Z,10.10
2019-03-05T10:27:58.027Z,10.20
2019-03-05T10:30:38.434Z,9.90
2019-03-05T10:33:08.694Z,10.00
2019-03-05T10:35:37.194Z,10.00
2019-03-05T10:38:07.180Z,10.10
2019-03-05T10:40:43.816Z,10.50
2019-03-05T10:43:14.382Z,10.60
2019-03-05T10:45:45.917Z,10.50
2019-03-05T10:48:17.231Z,10.50
2019-03-05T10:50:46.617Z,10.40
2019-03-05T10:53:15.140Z,10.60
2019-03-05T10:55:43.928Z,10.50
2019-03-05T10:58:14.361Z,10.40
2019-03-05T11:00:51.453Z,10.30
2019-03-05T11:03:22.152Z,10.30
2019-03-05T11:05:51.572Z,10.40
2019-03-05T11:08:23.954Z,10.50
2019-03-05T11:10:53.311Z,10.70
2019-03-05T11:13:22.135Z,10.80
2019-03-05T11:15:53.997Z,10.90
2019-03-05T11:18:29.537Z,11.10
2019-03-05T11:20:52.878Z,11.10
2019-03-05T11:23:21.305Z,11.10
2019-03-05T11:25:49.814Z,11.10
2019-03-05T11:28:18.653Z,11.10
2019-03-05T11:30:47.097Z,11.00
2019-03-05T11:33:15.866Z,11.00
2019-03-05T11:35:44.337Z,10.80
2019-03-05T11:38:12.974Z,10.80
2019-03-05T11:40:41.698Z,10.80
2019-03-05T11:43:12.940Z,11.00
2019-03-05T11:45:42.701Z,10.90
2019-03-05T11:48:11.496Z,11.00
2019-03-05T11:50:40.421Z,11.00
2019-03-05T11:53:08.855Z,11.20
2019-03-05T11:55:37.685Z,11.30
2019-03-05T11:58:06.479Z,11.30
2019-03-05T12:00:37.322Z,11.20
2019-03-05T12:03:05.822Z,11.40
2019-03-05T12:05:34.266Z,11.50
2019-03-05T12:08:02.718Z,11.60
2019-03-05T12:10:31.546Z,11.60
2019-03-05T12:13:00.337Z,11.70
2019-03-05T12:15:40.169Z,11.90
2019-03-05T12:18:08.613Z,12.00
2019-03-05T12:20:37.116Z,12.10
2019-03-05T12:23:06.693Z,12.10
2019-03-05T12:25:39.767Z,12.10
2019-03-05T12:28:10.440Z,12.10
2019-03-05T12:30:36.749Z,12.00
2019-03-05T12:33:06.569Z,12.00
2019-03-05T12:35:35.578Z,12.10
2019-03-05T12:38:04.617Z,12.10
2019-03-05T12:40:33.046Z,12.20
2019-03-05T12:43:01.788Z,12.10
2019-03-05T12:45:30.273Z,12.00
2019-03-05T12:47:59.062Z,12.10
2019-03-05T12:50:30.090Z,12.00
2019-03-05T12:52:58.622Z,11.80
2019-03-05T12:55:27.458Z,11.70
2019-03-05T12:57:56.254Z,11.70
2019-03-05T13:00:33.955Z,11.80
2019-03-05T13:03:02.669Z,12.00
2019-03-05T13:05:31.531Z,12.20
2019-03-05T13:07:59.980Z,12.20
2019-03-05T13:10:37.411Z,12.20
2019-03-05T13:13:05.589Z,12.10
2019-03-05T13:15:41.901Z,12.10
2019-03-05T13:18:10.348Z,12.10
2019-03-05T13:20:39.028Z,12.00
2019-03-05T13:23:09.460Z,12.00
2019-03-05T13:25:38.431Z,12.00
2019-03-05T13:28:07.114Z,12.00
2019-03-05T13:30:35.998Z,12.10
2019-03-05T13:33:04.518Z,12.20
2019-03-05T13:35:32.954Z,12.20
2019-03-05T13:38:09.352Z,12.10
2019-03-05T13:40:38.220Z,12.10
2019-03-05T13:43:07.311Z,12.10
2019-03-05T13:45:36.020Z,12.10
2019-03-05T13:48:07.552Z,12.10
2019-03-05T13:50:45.127Z,12.20
2019-03-05T13:53:42.518Z,12.10
2019-03-05T13:56:25.948Z,12.20
2019-03-05T13:59:08.829Z,12.10
2019-03-05T14:01:37.311Z,12.10
2019-03-05T14:04:11.362Z,12.00
2019-03-05T14:06:55.308Z,12.00
2019-03-05T14:09:22.677Z,12.00
2019-03-05T14:11:51.289Z,12.00
2019-03-05T14:14:22.084Z,11.90
2019-03-05T14:16:52.374Z,11.70
2019-03-05T14:19:20.836Z,11.60
2019-03-05T14:21:49.323Z,11.60
2019-03-05T14:24:17.859Z,11.60
2019-03-05T14:26:46.297Z,11.70
2019-03-05T14:29:14.768Z,11.80
2019-03-05T14:31:44.410Z,11.60
2019-03-05T14:34:12.936Z,11.60
2019-03-05T14:36:41.390Z,11.50
2019-03-05T14:39:29.178Z,11.50
2019-03-05T14:41:57.870Z,11.50
2019-03-05T14:44:26.379Z,11.50
2019-03-05T14:46:57.033Z,11.50
2019-03-05T14:49:25.643Z,11.60
2019-03-05T14:51:54.200Z,11.60
2019-03-05T14:54:22.737Z,11.50
2019-03-05T14:56:51.271Z,11.40
2019-03-05T14:59:19.777Z,11.30
2019-03-05T15:02:07.659Z,11.30
2019-03-05T15:04:36.468Z,11.30
2019-03-05T15:07:06.948Z,11.20
2019-03-05T15:09:35.153Z,11.20
2019-03-05T15:12:03.741Z,11.10
2019-03-05T15:14:32.285Z,11.10
2019-03-05T15:17:00.864Z,11.00
2019-03-05T15:19:29.339Z,11.00
2019-03-05T15:21:57.980Z,11.00
2019-03-05T15:24:26.631Z,11.00
2019-03-05T15:26:55.142Z,10.90
2019-03-05T15:29:23.573Z,10.80
2019-03-05T15:31:52.105Z,10.80
2019-03-05T15:34:20.628Z,10.80
2019-03-05T15:36:51.944Z,10.90
2019-03-05T15:39:19.559Z,11.00
2019-03-05T15:41:48.440Z,11.00
2019-03-05T15:44:17.010Z,10.90
2019-03-05T15:46:45.735Z,10.70
2019-03-05T15:49:14.153Z,10.80
2019-03-05T15:51:42.604Z,10.90
2019-03-05T15:54:11.035Z,10.90
2019-03-05T15:56:39.802Z,10.90
2019-03-05T15:59:08.301Z,10.90
2019-03-05T16:01:36.755Z,10.90
2019-03-05T16:04:05.549Z,10.90
2019-03-05T16:06:35.279Z,10.70
2019-03-05T16:09:06.191Z,10.70
2019-03-05T16:11:35.185Z,10.70
2019-03-05T16:14:04.094Z,10.90
2019-03-05T16:16:32.879Z,10.50
2019-03-05T16:19:01.674Z,10.30
2019-03-05T16:21:30.261Z,10.20
2019-03-05T16:24:01.625Z,10.20
2019-03-05T16:26:28.861Z,10.10
2019-03-05T16:28:57.292Z,10.10
2019-03-05T16:31:27.754Z,10.10
2019-03-05T16:33:57.823Z,10.10
2019-03-05T16:39:19.354Z,10.40
2019-03-05T16:42:06.105Z,10.40
2019-03-05T16:44:45.235Z,10.50
2019-03-05T16:47:28.002Z,10.50
2019-03-05T16:50:04.060Z,10.30
2019-03-05T16:52:36.861Z,10.20
2019-03-05T16:55:28.750Z,10.20
2019-03-05T16:57:58.843Z,10.20
2019-03-05T17:00:29.299Z,10.10
2019-03-05T17:03:02.214Z,9.80
2019-03-05T17:05:32.282Z,9.50
2019-03-05T17:08:18.826Z,9.40
2019-03-05T17:10:49.270Z,9.30
2019-03-05T17:13:17.810Z,9.20
2019-03-05T17:15:46.234Z,9.10
2019-03-05T17:18:14.673Z,9.00
2019-03-05T17:20:43.370Z,9.00
2019-03-05T17:23:11.887Z,9.00
2019-03-05T17:25:40.356Z,9.00
2019-03-05T17:28:09.363Z,8.90
2019-03-05T17:30:38.214Z,8.90
2019-03-05T17:33:06.877Z,8.90
2019-03-05T17:35:35.586Z,8.90
2019-03-05T17:38:04.486Z,8.90
2019-03-05T17:40:52.237Z,8.80
2019-03-05T17:43:20.676Z,8.90
2019-03-05T17:45:49.097Z,8.90
2019-03-05T17:48:17.551Z,8.90
2019-03-05T17:50:45.972Z,9.00
2019-03-05T17:53:14.414Z,8.90
2019-03-05T17:55:43.117Z,9.00
2019-03-05T17:58:11.565Z,9.00
2019-03-05T18:00:41.698Z,9.00
2019-03-05T18:03:10.144Z,9.00
2019-03-05T18:05:38.564Z,9.10
2019-03-05T18:08:07.413Z,9.10
2019-03-05T18:10:35.841Z,9.20
2019-03-05T18:13:04.427Z,9.10
2019-03-05T18:15:33.208Z,9.10
2019-03-05T18:18:01.641Z,9.10
2019-03-05T18:20:30.585Z,9.10
2019-03-05T18:22:59.110Z,9.10
2019-03-05T18:25:27.641Z,9.10
2019-03-05T18:27:56.062Z,9.10
2019-03-05T18:30:25.937Z,9.10
2019-03-05T18:32:54.990Z,9.10
2019-03-05T18:35:23.476Z,9.10
2019-03-05T18:37:52.037Z,9.10
2019-03-05T18:40:22.787Z,9.10
2019-03-05T18:42:51.285Z,9.10
2019-03-05T18:45:23.290Z,9.10
2019-03-05T18:47:51.717Z,9.10
2019-03-05T18:50:22.396Z,9.10
2019-03-05T18:52:53.025Z,9.00
2019-03-05T18:55:23.766Z,9.00
2019-03-05T18:57:52.192Z,9.00
2019-03-05T19:00:31.413Z,9.00
2019-03-05T19:03:08.665Z,9.00
2019-03-05T19:05:37.381Z,8.90
2019-03-05T19:08:05.882Z,9.00
2019-03-05T19:10:34.389Z,8.90
2019-03-05T19:13:15.013Z,9.00
2019-03-05T19:15:43.534Z,8.90
2019-03-05T19:18:11.970Z,9.00
2019-03-05T19:20:40.472Z,8.90
2019-03-05T19:23:08.896Z,9.00
2019-03-05T19:25:39.762Z,8.90
2019-03-05T19:28:08.953Z,9.00
2019-03-05T19:30:39.309Z,9.10
2019-03-05T19:33:07.804Z,9.40
2019-03-05T19:35:36.265Z,9.40
2019-03-05T19:38:05.137Z,9.30
2019-03-05T19:40:36.185Z,9.00
2019-03-05T19:43:05.538Z,8.90
2019-03-05T19:45:33.973Z,8.90
2019-03-05T19:48:02.750Z,8.80
2019-03-05T19:50:31.329Z,8.70
2019-03-05T19:53:00.185Z,8.60
2019-03-05T19:55:29.837Z,8.60
2019-03-05T19:58:17.465Z,8.80
2019-03-05T20:01:06.677Z,8.70
2019-03-05T20:03:35.169Z,8.80
2019-03-05T20:06:04.077Z,8.80
2019-03-05T20:08:39.489Z,8.70
2019-03-05T20:11:03.030Z,8.70
2019-03-05T20:13:31.463Z,8.60
2019-03-05T20:16:00.290Z,8.50
2019-03-05T20:18:28.714Z,8.50
2019-03-05T20:20:57.155Z,8.40
2019-03-05T20:23:25.752Z,8.40
2019-03-05T20:25:54.189Z,8.30
2019-03-05T20:28:22.640Z,8.10
2019-03-05T20:30:51.197Z,8.10
2019-03-05T20:33:19.994Z,8.00
2019-03-05T20:35:48.781Z,7.90
2019-03-05T20:38:17.222Z,7.80
2019-03-05T20:40:45.734Z,7.60
2019-03-05T20:43:14.157Z,7.40
2019-03-05T20:45:51.689Z,7.40
2019-03-05T20:48:20.244Z,7.30
2019-03-05T20:50:48.681Z,7.20
2019-03-05T20:53:17.254Z,7.10
2019-03-05T20:55:46.058Z,7.10
2019-03-05T20:58:14.561Z,7.00
2019-03-05T21:00:43.722Z,7.00
2019-03-05T21:03:12.817Z,6.80
2019-03-05T21:05:48.691Z,6.90
2019-03-05T21:08:17.228Z,6.80
2019-03-05T21:10:45.817Z,6.80
2019-03-05T21:13:14.403Z,6.80
2019-03-05T21:15:43.229Z,6.70
2019-03-05T21:18:13.999Z,6.60
2019-03-05T21:20:42.477Z,6.50
2019-03-05T21:23:11.328Z,6.50
2019-03-05T21:25:39.744Z,6.50
2019-03-05T21:28:08.602Z,6.40
2019-03-05T21:30:37.529Z,6.40
2019-03-05T21:33:06.046Z,6.40
2019-03-05T21:35:34.470Z,6.40
2019-03-05T21:38:03.307Z,6.40
2019-03-05T21:40:33.124Z,6.40
2019-03-05T21:43:01.635Z,6.40
2019-03-05T21:45:41.224Z,6.40
2019-03-05T21:48:09.690Z,6.40
2019-03-05T21:50:38.179Z,6.40
2019-03-05T21:53:06.906Z,6.40
2019-03-05T21:55:35.346Z,6.40
2019-03-05T21:58:04.037Z,6.40
2019-03-05T22:00:37.909Z,6.40
2019-03-05T22:03:06.697Z,6.40
2019-03-05T22:05:35.121Z,6.50
2019-03-05T22:08:03.630Z,6.50
2019-03-05T22:10:32.478Z,6.40
2019-03-05T22:13:01.245Z,6.30
2019-03-05T22:15:31.215Z,6.20
2019-03-05T22:18:00.155Z,6.30
2019-03-05T22:20:28.577Z,6.20
2019-03-05T22:22:57.549Z,6.20
2019-03-05T22:25:26.383Z,6.20
2019-03-05T22:27:54.922Z,6.20
2019-03-05T22:30:39.724Z,6.20
2019-03-05T22:33:08.548Z,6.10
2019-03-05T22:35:36.973Z,6.20
2019-03-05T22:38:05.405Z,6.20
2019-03-05T22:40:33.919Z,6.30
2019-03-05T22:43:02.355Z,6.30
2019-03-05T22:45:32.506Z,6.30
2019-03-05T22:48:01.202Z,6.20
2019-03-05T22:50:29.624Z,6.20
2019-03-05T22:52:58.063Z,6.10
2019-03-05T22:55:26.836Z,6.10
2019-03-05T22:57:55.533Z,6.10
2019-03-05T23:00:43.725Z,6.10
2019-03-05T23:03:15.181Z,6.10
2019-03-05T23:05:43.673Z,6.10
2019-03-05T23:08:12.393Z,6.10
2019-03-05T23:10:41.011Z,6.10
2019-03-05T23:13:09.778Z,6.10
2019-03-05T23:15:38.353Z,6.10
2019-03-05T23:18:07.139Z,6.10
2019-03-05T23:20:35.661Z,6.10
2019-03-05T23:23:04.090Z,6.10
2019-03-05T23:25:32.597Z,6.20
2019-03-05T23:28:01.030Z,6.20
2019-03-05T23:30:29.852Z,6.10
2019-03-05T23:32:58.290Z,6.10
2019-03-05T23:35:27.002Z,6.20
2019-03-05T23:37:55.822Z,6.20
2019-03-05T23:40:24.270Z,6.20
2019-03-05T23:42:52.769Z,6.20
2019-03-05T23:45:21.981Z,6.20
2019-03-05T23:47:50.404Z,6.20
2019-03-05T23:50:18.924Z,6.20
2019-03-05T23:52:47.345Z,6.20
2019-03-05T23:55:16.442Z,6.10
2019-03-05T23:57:45.246Z,6.10
